Terminal Aerodrome Forecast
Issued by NWS Greer, SC

Home | Current Version | Previous Version | Text Only | Print | Product List | Glossary On
Versions: 1 2 3 4 5 6 7 8 9 10 11 12 13 14 15
000
FTUS42 KGSP 251722
TAFGSP
TAF
KGSP 251722Z 2518/2618 21005KT P6SM SCT060
     FM252100 21007KT P6SM BKN060
     FM260200 23004KT P6SM SCT060=

USA.gov is the U.S. government's official web portal to all federal, state and local government web resources and services.